Time;durP1;ratioP1;P1;durP2;ratioP2;P2;SDS_P1;SDS_P2;PMS_P1;PMS_P2;Temp;Humidity;BMP_temperature;BMP_pressure;BME280_temperature;BME280_humidity;BME280_pressure;Samples;Min_cycle;Max_cycle;Signal;HPM_P1;HPM_P2
2022/03/08 00:00:57;;;;;;;;;;;;;;;;;;2106264;28;19931;-50
2022/03/08 00:01:58;;;;;;;;;;;;;;;;;;2105622;28;19998;-49
2022/03/08 00:02:59;;;;;;;;;;;;;;;;;;2106850;28;19928;-51
2022/03/08 00:04:01;;;;;;;;;;;;;;;;;;2106797;28;19970;-53
2022/03/08 00:05:02;;;;;;;;;;;;;;;;;;2107354;28;19932;-48
2022/03/08 00:06:03;;;;;;;;;;;;;;;;;;2106555;28;19924;-50
2022/03/08 00:07:05;;;;;;;;;;;;;;;;;;2110467;28;19946;-48
2022/03/08 00:08:06;;;;;;;;;;;;;;;;;;2106247;28;20397;-49
2022/03/08 00:09:07;;;;;;;;;;;;;;;;;;2106435;28;19960;-45
2022/03/08 00:10:09;;;;;;;;;;;;;;;;;;2106014;28;19963;-45
2022/03/08 00:11:10;;;;;;;;;;;;;;;;;;2106357;28;19973;-50
2022/03/08 00:12:11;;;;;;;;;;;;;;;;;;2106719;28;19953;-48
2022/03/08 00:13:12;;;;;;;;;;;;;;;;;;2107021;28;20023;-49
2022/03/08 00:14:14;;;;;;;;;;;;;;;;;;2106553;28;20342;-49
2022/03/08 00:15:15;;;;;;;;;;;;;;;;;;2106072;28;19966;-49
2022/03/08 00:16:16;;;;;;;;;;;;;;;;;;2106880;28;19982;-49
2022/03/08 00:17:17;;;;;;;;;;;;;;;;;;2106281;28;19945;-50
2022/03/08 00:18:18;;;;;;;;;;;;;;;;;;2105350;28;20380;-49
2022/03/08 00:19:19;;;;;;;;;;;;;;;;;;2105703;28;19935;-49
2022/03/08 00:20:21;;;;;;;;;;;;;;;;;;2106490;28;19924;-51
2022/03/08 00:21:23;;;;;;;;;;;;;;;;;;2105439;28;19928;-48
2022/03/08 00:22:24;;;;;;;;;;;;;;;;;;2106207;28;19931;-49
2022/03/08 00:23:26;;;;;;;;;;;;;;;;;;2106571;28;19967;-48
2022/03/08 00:24:27;;;;;;;;;;;;;;;;;;2106474;28;20026;-49
2022/03/08 00:25:28;;;;;;;;;;;;;;;;;;2106470;28;19978;-48
2022/03/08 00:26:29;;;;;;;;;;;;;;;;;;2106385;28;20535;-49
2022/03/08 00:27:30;;;;;;;;;;;;;;;;;;2106401;28;20397;-48
2022/03/08 00:28:32;;;;;;;;;;;;;;;;;;2106813;28;19956;-45
2022/03/08 00:29:33;;;;;;;;;;;;;;;;;;2106046;28;19982;-48
2022/03/08 00:30:34;;;;;;;;;;;;;;;;;;2105690;28;19939;-49
2022/03/08 00:31:35;;;;;;;;;;;;;;;;;;2106661;28;19969;-51
2022/03/08 00:32:37;;;;;;;;;;;;;;;;;;2105339;28;20445;-48
2022/03/08 00:33:38;;;;;;;;;;;;;;;;;;2106278;28;20232;-45
2022/03/08 00:34:39;;;;;;;;;;;;;;;;;;2106568;28;19932;-44
2022/03/08 00:35:40;;;;;;;;;;;;;;;;;;2102677;28;19931;-49
2022/03/08 00:36:42;;;;;;;;;;;;;;;;;;2106412;28;19973;-45
2022/03/08 00:37:43;;;;;;;;;;;;;;;;;;2106126;28;19952;-48
2022/03/08 00:38:44;;;;;;;;;;;;;;;;;;2106492;28;19924;-48
2022/03/08 00:39:45;;;;;;;;;;;;;;;;;;2098087;28;19925;-48
2022/03/08 00:40:46;;;;;;;;;;;;;;;;;;2101136;28;19924;-46
2022/03/08 00:41:47;;;;;;;;;;;;;;;;;;2105347;28;19932;-45
2022/03/08 00:42:48;;;;;;;;;;;;;;;;;;2106527;28;19931;-44
2022/03/08 00:43:51;;;;;;;;;;;;;;;;;;2107369;28;19975;-46
2022/03/08 00:44:52;;;;;;;;;;;;;;;;;;2105931;28;19924;-49
2022/03/08 00:45:53;;;;;;;;;;;;;;;;;;2106423;28;20015;-51
2022/03/08 00:46:54;;;;;;;;;;;;;;;;;;2107354;28;20603;-48
2022/03/08 00:47:56;;;;;;;;;;;;;;;;;;2106150;28;20266;-50
2022/03/08 00:48:57;;;;;;;;;;;;;;;;;;2106397;28;19970;-50
2022/03/08 00:49:58;;;;;;;;;;;;;;;;;;2106959;28;20431;-44
2022/03/08 00:50:59;;;;;;;;;;;;;;;;;;2106020;28;20427;-44
2022/03/08 00:52:01;;;;;;;;;;;;;;;;;;2106401;28;19927;-44
2022/03/08 00:53:02;;;;;;;;;;;;;;;;;;2106682;28;19924;-44
2022/03/08 00:54:03;;;;;;;;;;;;;;;;;;2106658;28;19990;-44
2022/03/08 00:55:04;;;;;;;;;;;;;;;;;;2106174;28;19928;-45
2022/03/08 00:56:05;;;;;;;;;;;;;;;;;;2106863;28;19932;-45
2022/03/08 00:57:06;;;;;;;;;;;;;;;;;;2106519;28;19924;-45
2022/03/08 00:58:08;;;;;;;;;;;;;;;;;;2107293;28;20025;-45
2022/03/08 00:59:08;;;;;;;;;;;;;;;;;;2106258;28;20352;-49
2022/03/08 01:00:10;;;;;;;;;;;;;;;;;;2106339;28;19971;-49
2022/03/08 01:01:11;;;;;;;;;;;;;;;;;;2104906;28;20316;-48
2022/03/08 01:02:12;;;;;;;;;;;;;;;;;;2105124;28;20354;-48
2022/03/08 01:03:13;;;;;;;;;;;;;;;;;;2106368;28;19924;-50
2022/03/08 01:04:15;;;;;;;;;;;;;;;;;;2104550;28;19924;-49
2022/03/08 01:05:16;;;;;;;;;;;;;;;;;;2106007;28;20016;-47
2022/03/08 01:06:17;;;;;;;;;;;;;;;;;;2111492;28;19966;-47
2022/03/08 01:07:18;;;;;;;;;;;;;;;;;;2105655;28;19928;-47
2022/03/08 01:08:20;;;;;;;;;;;;;;;;;;2106575;28;19928;-50
2022/03/08 01:09:21;;;;;;;;;;;;;;;;;;2107097;28;19966;-50
2022/03/08 01:10:22;;;;;;;;;;;;;;;;;;2105697;28;19935;-44
2022/03/08 01:11:23;;;;;;;;;;;;;;;;;;2106411;28;20032;-44
2022/03/08 01:12:24;;;;;;;;;;;;;;;;;;2105594;28;19931;-45
2022/03/08 01:13:25;;;;;;;;;;;;;;;;;;2105991;28;20430;-46
2022/03/08 01:14:26;;;;;;;;;;;;;;;;;;2106357;28;19977;-44
2022/03/08 01:15:27;;;;;;;;;;;;;;;;;;2106926;28;19927;-48
2022/03/08 01:16:29;;;;;;;;;;;;;;;;;;2106381;28;19924;-44
2022/03/08 01:17:30;;;;;;;;;;;;;;;;;;2106210;28;20471;-44
2022/03/08 01:18:31;;;;;;;;;;;;;;;;;;2106554;28;20007;-45
2022/03/08 01:19:33;;;;;;;;;;;;;;;;;;2106202;28;19924;-44
2022/03/08 01:20:34;;;;;;;;;;;;;;;;;;2105940;28;19960;-44
2022/03/08 01:21:36;;;;;;;;;;;;;;;;;;2105201;28;19965;-49
2022/03/08 01:22:37;;;;;;;;;;;;;;;;;;2106200;28;19967;-48
2022/03/08 01:23:38;;;;;;;;;;;;;;;;;;2106745;28;19964;-52
2022/03/08 01:24:39;;;;;;;;;;;;;;;;;;2105680;28;19924;-50
2022/03/08 01:25:42;;;;;;;;;;;;;;;;;;2106115;28;19970;-49
2022/03/08 01:26:43;;;;;;;;;;;;;;;;;;2106579;28;19936;-48
2022/03/08 01:27:44;;;;;;;;;;;;;;;;;;2105690;28;19928;-44
2022/03/08 01:28:45;;;;;;;;;;;;;;;;;;2106099;28;20388;-44
2022/03/08 01:29:46;;;;;;;;;;;;;;;;;;2104826;28;19924;-44
2022/03/08 01:30:47;;;;;;;;;;;;;;;;;;2106358;28;20019;-48
2022/03/08 01:31:49;;;;;;;;;;;;;;;;;;2106013;28;20015;-49
2022/03/08 01:32:50;;;;;;;;;;;;;;;;;;2106712;28;20048;-45
2022/03/08 01:33:51;;;;;;;;;;;;;;;;;;2106193;28;19924;-46
2022/03/08 01:34:52;;;;;;;;;;;;;;;;;;2105858;28;19919;-52
2022/03/08 01:35:55;;;;;;;;;;;;;;;;;;2104198;28;19928;-50
2022/03/08 01:36:56;;;;;;;;;;;;;;;;;;2106322;28;20013;-51
2022/03/08 01:37:57;;;;;;;;;;;;;;;;;;2105101;28;19927;-49
2022/03/08 01:38:58;;;;;;;;;;;;;;;;;;2104868;28;19979;-49
2022/03/08 01:39:59;;;;;;;;;;;;;;;;;;2105881;28;19947;-49
2022/03/08 01:41:01;;;;;;;;;;;;;;;;;;2106646;28;20033;-45
2022/03/08 01:42:02;;;;;;;;;;;;;;;;;;2105462;28;19963;-49
2022/03/08 01:43:05;;;;;;;;;;;;;;;;;;2106134;28;20008;-51
2022/03/08 01:44:06;;;;;;;;;;;;;;;;;;2106060;28;20649;-49
2022/03/08 01:45:08;;;;;;;;;;;;;;;;;;2106015;28;20364;-50
2022/03/08 01:46:09;;;;;;;;;;;;;;;;;;2106645;28;20377;-49
2022/03/08 01:47:11;;;;;;;;;;;;;;;;;;2105444;28;19930;-49
2022/03/08 01:48:13;;;;;;;;;;;;;;;;;;2106019;28;19974;-51
2022/03/08 01:49:14;;;;;;;;;;;;;;;;;;2106622;28;19950;-51
2022/03/08 01:50:16;;;;;;;;;;;;;;;;;;2105811;28;19931;-45
2022/03/08 01:51:18;;;;;;;;;;;;;;;;;;2103261;28;19969;-45
2022/03/08 01:52:19;;;;;;;;;;;;;;;;;;2105815;28;19999;-45
2022/03/08 01:53:20;;;;;;;;;;;;;;;;;;2106141;28;19944;-45
2022/03/08 01:54:21;;;;;;;;;;;;;;;;;;2114463;28;20003;-46
2022/03/08 01:55:22;;;;;;;;;;;;;;;;;;2106504;28;20250;-44
2022/03/08 01:56:23;;;;;;;;;;;;;;;;;;2105788;28;20353;-45
2022/03/08 01:57:25;;;;;;;;;;;;;;;;;;2105967;28;19924;-46
2022/03/08 01:58:26;;;;;;;;;;;;;;;;;;2106386;28;20019;-45
2022/03/08 01:59:27;;;;;;;;;;;;;;;;;;2105431;28;19967;-46
2022/03/08 02:00:29;;;;;;;;;;;;;;;;;;2106571;28;19960;-46
2022/03/08 02:01:30;;;;;;;;;;;;;;;;;;2105568;28;19928;-45
2022/03/08 02:02:31;;;;;;;;;;;;;;;;;;2105793;28;19924;-45
2022/03/08 02:03:32;;;;;;;;;;;;;;;;;;2106513;28;19923;-45
2022/03/08 02:04:34;;;;;;;;;;;;;;;;;;2106995;28;19966;-45
2022/03/08 02:05:34;;;;;;;;;;;;;;;;;;2107384;28;20015;-46
2022/03/08 02:06:36;;;;;;;;;;;;;;;;;;2107641;28;19932;-45
2022/03/08 02:07:37;;;;;;;;;;;;;;;;;;2107457;28;19946;-45
2022/03/08 02:08:38;;;;;;;;;;;;;;;;;;2107596;28;20469;-46
2022/03/08 02:09:39;;;;;;;;;;;;;;;;;;2107707;28;19924;-45
2022/03/08 02:10:40;;;;;;;;;;;;;;;;;;2107116;28;19932;-46
2022/03/08 02:11:42;;;;;;;;;;;;;;;;;;2108257;28;19924;-45
2022/03/08 02:12:43;;;;;;;;;;;;;;;;;;2106889;28;19924;-45
2022/03/08 02:13:44;;;;;;;;;;;;;;;;;;2107410;28;19924;-45
2022/03/08 02:14:45;;;;;;;;;;;;;;;;;;2107901;28;19928;-45
2022/03/08 02:15:46;;;;;;;;;;;;;;;;;;2107098;28;19931;-45
2022/03/08 02:16:47;;;;;;;;;;;;;;;;;;2100847;28;19932;-45
2022/03/08 02:17:48;;;;;;;;;;;;;;;;;;2104809;28;20300;-49
2022/03/08 02:18:50;;;;;;;;;;;;;;;;;;2107316;28;20339;-49
2022/03/08 02:19:56;;;;;;;;;;;;;;;;;;2107430;28;20308;-50
2022/03/08 02:20:58;;;;;;;;;;;;;;;;;;2107737;28;19967;-49
2022/03/08 02:21:59;;;;;;;;;;;;;;;;;;2107344;28;20061;-49
2022/03/08 02:23:01;;;;;;;;;;;;;;;;;;2108086;28;19924;-50
2022/03/08 02:24:02;;;;;;;;;;;;;;;;;;2106808;28;19931;-49
2022/03/08 02:25:03;;;;;;;;;;;;;;;;;;2107475;28;19924;-49
2022/03/08 02:26:04;;;;;;;;;;;;;;;;;;2107758;28;19928;-49
2022/03/08 02:27:06;;;;;;;;;;;;;;;;;;2106847;28;19924;-50
2022/03/08 02:28:07;;;;;;;;;;;;;;;;;;2107296;28;19928;-49
2022/03/08 02:30:49;;;;;;;;;;;;;;;;;;2094885;28;20281;-50
2022/03/08 02:31:52;;;;;;;;;;;;;;;;;;2104833;28;19931;-50
2022/03/08 02:32:53;;;;;;;;;;;;;;;;;;2106442;28;20409;-45
2022/03/08 02:33:54;;;;;;;;;;;;;;;;;;2106613;28;20488;-45
2022/03/08 02:34:55;;;;;;;;;;;;;;;;;;2107379;28;19931;-44
2022/03/08 02:35:56;;;;;;;;;;;;;;;;;;2107225;28;20054;-44
2022/03/08 02:36:58;;;;;;;;;;;;;;;;;;2107645;28;19924;-44
2022/03/08 02:37:59;;;;;;;;;;;;;;;;;;2107568;28;19924;-46
2022/03/08 02:39:00;;;;;;;;;;;;;;;;;;2107686;28;20216;-45
2022/03/08 02:40:03;;;;;;;;;;;;;;;;;;2108244;28;19928;-45
2022/03/08 02:41:04;;;;;;;;;;;;;;;;;;2105899;28;20362;-45
2022/03/08 02:42:05;;;;;;;;;;;;;;;;;;2107380;28;20395;-45
2022/03/08 02:43:06;;;;;;;;;;;;;;;;;;2107837;28;19992;-44
2022/03/08 02:44:07;;;;;;;;;;;;;;;;;;2107013;28;20024;-45
2022/03/08 02:45:09;;;;;;;;;;;;;;;;;;2107231;28;19978;-45
2022/03/08 02:46:10;;;;;;;;;;;;;;;;;;2107512;28;19966;-44
2022/03/08 02:47:11;;;;;;;;;;;;;;;;;;2107203;28;19981;-45
2022/03/08 02:48:13;;;;;;;;;;;;;;;;;;2106405;28;19924;-44
2022/03/08 02:49:13;;;;;;;;;;;;;;;;;;2107437;28;19931;-44
2022/03/08 02:50:15;;;;;;;;;;;;;;;;;;2107356;28;19924;-46
2022/03/08 02:51:17;;;;;;;;;;;;;;;;;;2107292;28;20010;-48
2022/03/08 02:52:18;;;;;;;;;;;;;;;;;;2107333;28;20415;-49
2022/03/08 02:53:20;;;;;;;;;;;;;;;;;;2107172;28;19974;-52
2022/03/08 02:54:21;;;;;;;;;;;;;;;;;;2107742;28;19997;-49
2022/03/08 02:55:22;;;;;;;;;;;;;;;;;;2107005;28;19928;-49
2022/03/08 02:56:23;;;;;;;;;;;;;;;;;;2106818;28;19974;-49
2022/03/08 02:57:24;;;;;;;;;;;;;;;;;;2107470;28;19924;-52
2022/03/08 02:58:25;;;;;;;;;;;;;;;;;;2107109;28;20019;-52
2022/03/08 02:59:27;;;;;;;;;;;;;;;;;;2107175;28;20017;-49
2022/03/08 03:00:28;;;;;;;;;;;;;;;;;;2106296;28;19976;-45
2022/03/08 03:01:29;;;;;;;;;;;;;;;;;;2107227;28;19970;-47
2022/03/08 03:02:30;;;;;;;;;;;;;;;;;;2107219;28;20315;-47
2022/03/08 03:03:32;;;;;;;;;;;;;;;;;;2107355;28;19924;-44
2022/03/08 03:04:34;;;;;;;;;;;;;;;;;;2107861;28;19959;-51
2022/03/08 03:05:36;;;;;;;;;;;;;;;;;;2107814;28;19924;-49
2022/03/08 03:06:37;;;;;;;;;;;;;;;;;;2106487;28;20003;-50
2022/03/08 03:07:39;;;;;;;;;;;;;;;;;;2107176;28;20101;-52
2022/03/08 03:08:39;;;;;;;;;;;;;;;;;;2107736;28;20007;-49
2022/03/08 03:09:41;;;;;;;;;;;;;;;;;;2106854;28;19977;-49
2022/03/08 03:10:42;;;;;;;;;;;;;;;;;;2107577;28;19924;-50
2022/03/08 03:11:43;;;;;;;;;;;;;;;;;;2107738;28;19977;-45
2022/03/08 03:12:44;;;;;;;;;;;;;;;;;;2106966;28;19924;-46
2022/03/08 03:13:45;;;;;;;;;;;;;;;;;;2107115;28;19973;-44
2022/03/08 03:14:47;;;;;;;;;;;;;;;;;;2107338;28;19932;-45
2022/03/08 03:15:48;;;;;;;;;;;;;;;;;;2106943;28;19924;-46
2022/03/08 03:16:49;;;;;;;;;;;;;;;;;;2107453;28;19924;-44
2022/03/08 03:17:50;;;;;;;;;;;;;;;;;;2106720;28;19928;-45
2022/03/08 03:18:51;;;;;;;;;;;;;;;;;;2107047;28;20376;-45
2022/03/08 03:19:52;;;;;;;;;;;;;;;;;;2107884;28;19958;-45
2022/03/08 03:20:54;;;;;;;;;;;;;;;;;;2106787;28;19967;-46
2022/03/08 03:21:55;;;;;;;;;;;;;;;;;;2107246;28;19935;-46
2022/03/08 03:22:56;;;;;;;;;;;;;;;;;;2107507;28;19924;-45
2022/03/08 03:23:57;;;;;;;;;;;;;;;;;;2105902;28;19964;-45
2022/03/08 03:24:58;;;;;;;;;;;;;;;;;;2106996;28;19946;-45
2022/03/08 03:25:59;;;;;;;;;;;;;;;;;;2105961;28;20015;-45
2022/03/08 03:27:01;;;;;;;;;;;;;;;;;;2107446;28;20389;-50
2022/03/08 03:28:02;;;;;;;;;;;;;;;;;;2107111;28;19975;-49
2022/03/08 03:29:04;;;;;;;;;;;;;;;;;;2105138;28;19963;-49
2022/03/08 03:30:05;;;;;;;;;;;;;;;;;;2107291;28;20057;-48
2022/03/08 03:31:06;;;;;;;;;;;;;;;;;;2107609;28;19924;-45
2022/03/08 03:32:07;;;;;;;;;;;;;;;;;;2106549;28;19924;-45
2022/03/08 03:33:08;;;;;;;;;;;;;;;;;;2107151;28;20023;-44
2022/03/08 03:34:09;;;;;;;;;;;;;;;;;;2107538;28;19977;-45
2022/03/08 03:35:11;;;;;;;;;;;;;;;;;;2106779;28;19977;-45
2022/03/08 03:36:12;;;;;;;;;;;;;;;;;;2106844;28;20069;-45
2022/03/08 03:37:13;;;;;;;;;;;;;;;;;;2107178;28;20009;-45
2022/03/08 03:38:14;;;;;;;;;;;;;;;;;;2106916;28;20010;-46
2022/03/08 03:39:16;;;;;;;;;;;;;;;;;;2106904;28;20373;-44
2022/03/08 03:40:17;;;;;;;;;;;;;;;;;;2107166;28;20859;-47
2022/03/08 03:41:18;;;;;;;;;;;;;;;;;;2106394;28;20340;-45
2022/03/08 03:42:20;;;;;;;;;;;;;;;;;;2107167;28;20014;-45
2022/03/08 03:43:22;;;;;;;;;;;;;;;;;;2106392;28;19931;-45
2022/03/08 03:44:24;;;;;;;;;;;;;;;;;;2106872;28;20415;-45
2022/03/08 03:45:25;;;;;;;;;;;;;;;;;;2107703;28;20427;-49
2022/03/08 03:46:26;;;;;;;;;;;;;;;;;;2106654;28;19924;-48
2022/03/08 03:47:27;;;;;;;;;;;;;;;;;;2107716;28;19924;-49
2022/03/08 03:48:29;;;;;;;;;;;;;;;;;;2105688;28;19939;-48
2022/03/08 03:49:30;;;;;;;;;;;;;;;;;;2105944;28;20397;-48
2022/03/08 03:50:31;;;;;;;;;;;;;;;;;;2105977;28;20013;-44
2022/03/08 03:51:32;;;;;;;;;;;;;;;;;;2103513;28;20003;-44
2022/03/08 03:52:34;;;;;;;;;;;;;;;;;;2107174;28;19994;-44
2022/03/08 03:53:35;;;;;;;;;;;;;;;;;;2107088;28;19972;-46
2022/03/08 03:54:36;;;;;;;;;;;;;;;;;;2107020;28;19931;-44
2022/03/08 03:55:37;;;;;;;;;;;;;;;;;;2106673;28;19924;-45
2022/03/08 03:56:38;;;;;;;;;;;;;;;;;;2107781;28;19978;-44
2022/03/08 03:57:39;;;;;;;;;;;;;;;;;;2107219;28;20035;-44
2022/03/08 03:58:40;;;;;;;;;;;;;;;;;;2106936;28;19929;-44
2022/03/08 03:59:42;;;;;;;;;;;;;;;;;;2105852;28;20289;-44
2022/03/08 04:00:42;;;;;;;;;;;;;;;;;;2106689;28;19924;-44
2022/03/08 04:01:44;;;;;;;;;;;;;;;;;;2106971;28;19924;-44
2022/03/08 04:02:45;;;;;;;;;;;;;;;;;;2106861;28;20361;-44
2022/03/08 04:03:46;;;;;;;;;;;;;;;;;;2106735;28;19931;-44
2022/03/08 04:04:47;;;;;;;;;;;;;;;;;;2106930;28;19924;-44
2022/03/08 04:05:49;;;;;;;;;;;;;;;;;;2106938;28;19969;-44
2022/03/08 04:06:50;;;;;;;;;;;;;;;;;;2106581;28;19993;-46
2022/03/08 04:07:51;;;;;;;;;;;;;;;;;;2107353;28;20436;-44
2022/03/08 04:08:52;;;;;;;;;;;;;;;;;;2106120;28;19966;-44
2022/03/08 04:09:53;;;;;;;;;;;;;;;;;;2106592;28;19923;-44
2022/03/08 04:10:54;;;;;;;;;;;;;;;;;;2107107;28;19974;-45
2022/03/08 04:11:55;;;;;;;;;;;;;;;;;;2106530;28;19930;-45
2022/03/08 04:12:56;;;;;;;;;;;;;;;;;;2106706;28;19979;-45
2022/03/08 04:13:58;;;;;;;;;;;;;;;;;;2107079;28;20319;-45
2022/03/08 04:14:58;;;;;;;;;;;;;;;;;;2106944;28;19924;-49
2022/03/08 04:16:00;;;;;;;;;;;;;;;;;;2106787;28;19983;-45
2022/03/08 04:17:02;;;;;;;;;;;;;;;;;;2105342;28;20387;-45
2022/03/08 04:18:03;;;;;;;;;;;;;;;;;;2106901;28;19947;-45
2022/03/08 04:19:04;;;;;;;;;;;;;;;;;;2098376;28;19928;-44
2022/03/08 04:20:06;;;;;;;;;;;;;;;;;;2107079;28;19932;-45
2022/03/08 04:21:06;;;;;;;;;;;;;;;;;;2106862;28;19935;-49
2022/03/08 04:22:08;;;;;;;;;;;;;;;;;;2107183;28;20305;-49
2022/03/08 04:23:09;;;;;;;;;;;;;;;;;;2106329;28;20378;-50
2022/03/08 04:24:10;;;;;;;;;;;;;;;;;;2106503;28;19932;-48
2022/03/08 04:25:11;;;;;;;;;;;;;;;;;;2107445;28;20332;-44
2022/03/08 04:26:13;;;;;;;;;;;;;;;;;;2106759;28;19931;-45
2022/03/08 04:27:14;;;;;;;;;;;;;;;;;;2105861;28;19966;-45
2022/03/08 04:28:15;;;;;;;;;;;;;;;;;;2107001;28;19924;-46
2022/03/08 04:29:16;;;;;;;;;;;;;;;;;;2098202;28;19938;-44
2022/03/08 04:30:17;;;;;;;;;;;;;;;;;;2098536;28;20053;-44
2022/03/08 04:31:18;;;;;;;;;;;;;;;;;;2106352;28;19924;-45
2022/03/08 04:32:20;;;;;;;;;;;;;;;;;;2106705;28;19924;-44
2022/03/08 04:33:21;;;;;;;;;;;;;;;;;;2107302;28;20004;-48
2022/03/08 04:34:23;;;;;;;;;;;;;;;;;;2105636;28;19928;-51
2022/03/08 04:35:24;;;;;;;;;;;;;;;;;;2099412;28;20404;-49
2022/03/08 04:36:26;;;;;;;;;;;;;;;;;;2107160;28;20416;-48
2022/03/08 04:37:29;;;;;;;;;;;;;;;;;;2106386;28;19924;-49
2022/03/08 04:38:31;;;;;;;;;;;;;;;;;;2098515;28;20388;-45
2022/03/08 04:39:31;;;;;;;;;;;;;;;;;;2104106;28;20024;-45
2022/03/08 04:40:33;;;;;;;;;;;;;;;;;;2106286;28;19928;-44
2022/03/08 04:41:34;;;;;;;;;;;;;;;;;;2106798;28;19997;-49
2022/03/08 04:42:35;;;;;;;;;;;;;;;;;;2106656;28;20380;-50
2022/03/08 04:43:37;;;;;;;;;;;;;;;;;;2106449;28;19990;-49
2022/03/08 04:44:38;;;;;;;;;;;;;;;;;;2106827;28;19943;-45
2022/03/08 04:45:40;;;;;;;;;;;;;;;;;;2106317;28;19928;-45
2022/03/08 04:46:41;;;;;;;;;;;;;;;;;;2105682;28;20053;-44
2022/03/08 04:47:42;;;;;;;;;;;;;;;;;;2106123;28;19931;-45
2022/03/08 04:48:43;;;;;;;;;;;;;;;;;;2105837;28;20300;-48
2022/03/08 04:49:44;;;;;;;;;;;;;;;;;;2106464;28;19966;-47
2022/03/08 04:50:46;;;;;;;;;;;;;;;;;;2106852;28;19924;-45
2022/03/08 04:51:47;;;;;;;;;;;;;;;;;;2105966;28;19924;-45
2022/03/08 04:52:48;;;;;;;;;;;;;;;;;;2105669;28;20384;-49
2022/03/08 04:53:49;;;;;;;;;;;;;;;;;;2106626;28;19939;-50
2022/03/08 04:54:50;;;;;;;;;;;;;;;;;;2105266;28;19978;-49
2022/03/08 04:55:51;;;;;;;;;;;;;;;;;;2105998;28;19932;-50
2022/03/08 04:56:52;;;;;;;;;;;;;;;;;;2105596;28;20404;-49
2022/03/08 04:57:53;;;;;;;;;;;;;;;;;;2106368;28;19991;-48
2022/03/08 04:58:56;;;;;;;;;;;;;;;;;;2106228;28;19971;-49
2022/03/08 04:59:57;;;;;;;;;;;;;;;;;;2106140;28;19924;-48
2022/03/08 05:00:59;;;;;;;;;;;;;;;;;;2106324;28;19924;-49
2022/03/08 05:02:00;;;;;;;;;;;;;;;;;;2106567;28;20280;-49
2022/03/08 05:03:01;;;;;;;;;;;;;;;;;;2105913;28;20010;-45
2022/03/08 05:04:02;;;;;;;;;;;;;;;;;;2106756;28;19950;-48
2022/03/08 05:05:04;;;;;;;;;;;;;;;;;;2105813;28;19930;-49
2022/03/08 05:06:05;;;;;;;;;;;;;;;;;;2106256;28;19982;-49
2022/03/08 05:07:06;;;;;;;;;;;;;;;;;;2105573;28;19947;-49
2022/03/08 05:08:07;;;;;;;;;;;;;;;;;;2105795;28;20057;-45
2022/03/08 05:09:08;;;;;;;;;;;;;;;;;;2106444;28;20375;-46
2022/03/08 05:10:09;;;;;;;;;;;;;;;;;;2105301;28;20048;-45
2022/03/08 05:11:10;;;;;;;;;;;;;;;;;;2104633;28;19932;-45
2022/03/08 05:12:11;;;;;;;;;;;;;;;;;;2106293;28;19963;-44
2022/03/08 05:13:13;;;;;;;;;;;;;;;;;;2106919;28;19924;-44
2022/03/08 05:14:14;;;;;;;;;;;;;;;;;;2105875;28;20014;-45
2022/03/08 05:15:15;;;;;;;;;;;;;;;;;;2106845;28;19927;-45
2022/03/08 05:16:16;;;;;;;;;;;;;;;;;;2106871;28;19964;-45
2022/03/08 05:17:17;;;;;;;;;;;;;;;;;;2105622;28;20358;-45
2022/03/08 05:18:18;;;;;;;;;;;;;;;;;;2106189;28;20427;-44
2022/03/08 05:19:20;;;;;;;;;;;;;;;;;;2106739;28;19932;-45
2022/03/08 05:20:20;;;;;;;;;;;;;;;;;;2106073;28;20304;-44
2022/03/08 05:21:22;;;;;;;;;;;;;;;;;;2106792;28;20376;-45
2022/03/08 05:22:23;;;;;;;;;;;;;;;;;;2105569;28;20449;-46
2022/03/08 05:23:24;;;;;;;;;;;;;;;;;;2105641;28;19930;-46
2022/03/08 05:24:25;;;;;;;;;;;;;;;;;;2106952;28;19924;-49
2022/03/08 05:25:26;;;;;;;;;;;;;;;;;;2105886;28;20021;-45
2022/03/08 05:26:27;;;;;;;;;;;;;;;;;;2106188;28;20080;-47
2022/03/08 05:27:29;;;;;;;;;;;;;;;;;;2106564;28;19924;-45
2022/03/08 05:28:30;;;;;;;;;;;;;;;;;;2106073;28;20006;-48
2022/03/08 05:29:32;;;;;;;;;;;;;;;;;;2102152;28;19931;-49
2022/03/08 05:30:33;;;;;;;;;;;;;;;;;;2106338;28;20262;-51
2022/03/08 05:31:34;;;;;;;;;;;;;;;;;;2106422;28;20331;-48
2022/03/08 05:32:35;;;;;;;;;;;;;;;;;;2106022;28;20506;-50
2022/03/08 05:33:36;;;;;;;;;;;;;;;;;;2105638;28;19924;-45
2022/03/08 05:34:37;;;;;;;;;;;;;;;;;;2105465;28;20112;-46
2022/03/08 05:35:39;;;;;;;;;;;;;;;;;;2105506;28;20312;-46
2022/03/08 05:36:40;;;;;;;;;;;;;;;;;;2105629;28;19936;-48
2022/03/08 05:37:41;;;;;;;;;;;;;;;;;;2105119;28;20006;-49
2022/03/08 05:38:42;;;;;;;;;;;;;;;;;;2103353;28;19924;-50
2022/03/08 05:39:44;;;;;;;;;;;;;;;;;;2105790;28;19930;-50
2022/03/08 05:40:46;;;;;;;;;;;;;;;;;;2106257;28;19924;-48
2022/03/08 05:41:47;;;;;;;;;;;;;;;;;;2104692;28;19924;-50
2022/03/08 05:42:48;;;;;;;;;;;;;;;;;;2106249;28;20377;-49
2022/03/08 05:43:49;;;;;;;;;;;;;;;;;;2105867;28;20380;-51
2022/03/08 05:44:54;;;;;;;;;;;;;;;;;;2105737;28;19975;-52
2022/03/08 05:45:56;;;;;;;;;;;;;;;;;;2106061;28;19924;-49
2022/03/08 05:46:57;;;;;;;;;;;;;;;;;;2106791;28;19947;-48
2022/03/08 05:47:59;;;;;;;;;;;;;;;;;;2105737;28;19963;-51
2022/03/08 05:49:00;;;;;;;;;;;;;;;;;;2106247;28;19943;-49
2022/03/08 05:50:01;;;;;;;;;;;;;;;;;;2106660;28;19928;-49
2022/03/08 05:51:02;;;;;;;;;;;;;;;;;;2104817;28;20373;-45
2022/03/08 05:52:03;;;;;;;;;;;;;;;;;;2106339;28;19931;-50
2022/03/08 05:53:05;;;;;;;;;;;;;;;;;;2106718;28;20292;-48
2022/03/08 05:54:06;;;;;;;;;;;;;;;;;;2106111;28;19924;-45
2022/03/08 05:55:07;;;;;;;;;;;;;;;;;;2106100;28;20238;-44
2022/03/08 05:56:08;;;;;;;;;;;;;;;;;;2104153;28;19967;-45
2022/03/08 05:57:10;;;;;;;;;;;;;;;;;;2105975;28;19986;-45
2022/03/08 05:58:11;;;;;;;;;;;;;;;;;;2105873;28;19924;-51
2022/03/08 05:59:12;;;;;;;;;;;;;;;;;;2105734;28;19973;-51
2022/03/08 06:00:14;;;;;;;;;;;;;;;;;;2106346;28;20411;-51
2022/03/08 06:01:15;;;;;;;;;;;;;;;;;;2106306;28;20018;-48
2022/03/08 06:02:16;;;;;;;;;;;;;;;;;;2106055;28;19985;-47
2022/03/08 06:03:17;;;;;;;;;;;;;;;;;;2106309;28;20389;-45
2022/03/08 06:04:19;;;;;;;;;;;;;;;;;;2106410;28;19977;-44
2022/03/08 06:05:22;;;;;;;;;;;;;;;;;;2098037;28;19948;-45
2022/03/08 06:06:26;;;;;;;;;;;;;;;;;;2097776;28;19924;-46
2022/03/08 06:07:27;;;;;;;;;;;;;;;;;;2106771;28;19947;-44
2022/03/08 06:08:29;;;;;;;;;;;;;;;;;;2106030;28;19968;-45
2022/03/08 06:09:30;;;;;;;;;;;;;;;;;;2106817;28;20023;-45
2022/03/08 06:10:31;;;;;;;;;;;;;;;;;;2105569;28;20394;-45
2022/03/08 06:11:32;;;;;;;;;;;;;;;;;;2105860;28;20412;-44
2022/03/08 06:12:34;;;;;;;;;;;;;;;;;;2106385;28;20465;-44
2022/03/08 06:13:35;;;;;;;;;;;;;;;;;;2105901;28;20365;-47
2022/03/08 06:14:36;;;;;;;;;;;;;;;;;;2106203;28;19924;-44
2022/03/08 06:15:37;;;;;;;;;;;;;;;;;;2106362;28;20015;-44
2022/03/08 06:16:38;;;;;;;;;;;;;;;;;;2105704;28;19924;-44
2022/03/08 06:17:39;;;;;;;;;;;;;;;;;;2105986;28;19924;-46
2022/03/08 06:18:41;;;;;;;;;;;;;;;;;;2106199;28;19928;-45
2022/03/08 06:19:42;;;;;;;;;;;;;;;;;;2106152;28;20385;-52
2022/03/08 06:20:43;;;;;;;;;;;;;;;;;;2106384;28;20007;-49
2022/03/08 06:21:44;;;;;;;;;;;;;;;;;;2105492;28;19928;-49
2022/03/08 06:22:46;;;;;;;;;;;;;;;;;;2106305;28;20007;-45
2022/03/08 06:23:47;;;;;;;;;;;;;;;;;;2106641;28;20446;-45
2022/03/08 06:24:48;;;;;;;;;;;;;;;;;;2105597;28;19930;-46
2022/03/08 06:25:49;;;;;;;;;;;;;;;;;;2105953;28;19970;-45
2022/03/08 06:26:50;;;;;;;;;;;;;;;;;;2106454;28;19924;-46
2022/03/08 06:27:51;;;;;;;;;;;;;;;;;;2105764;28;19924;-45
2022/03/08 06:28:54;;;;;;;;;;;;;;;;;;2106005;28;19931;-49
2022/03/08 06:29:56;;;;;;;;;;;;;;;;;;2106143;28;19930;-50
2022/03/08 06:30:58;;;;;;;;;;;;;;;;;;2105784;28;19955;-48
2022/03/08 06:31:59;;;;;;;;;;;;;;;;;;2098869;28;20366;-49
2022/03/08 06:33:01;;;;;;;;;;;;;;;;;;2106300;28;19931;-48
2022/03/08 06:34:02;;;;;;;;;;;;;;;;;;2106024;28;19924;-49
2022/03/08 06:35:04;;;;;;;;;;;;;;;;;;2106672;28;19963;-48
2022/03/08 06:36:05;;;;;;;;;;;;;;;;;;2105375;28;19928;-48
2022/03/08 06:37:06;;;;;;;;;;;;;;;;;;2105071;28;19977;-45
2022/03/08 06:38:08;;;;;;;;;;;;;;;;;;2105530;28;19932;-49
2022/03/08 06:39:09;;;;;;;;;;;;;;;;;;2103994;28;20015;-52
2022/03/08 06:40:14;;;;;;;;;;;;;;;;;;2105093;28;19924;-48
2022/03/08 06:41:16;;;;;;;;;;;;;;;;;;2106311;28;19971;-48
2022/03/08 06:42:18;;;;;;;;;;;;;;;;;;2105407;28;19940;-48
2022/03/08 06:43:20;;;;;;;;;;;;;;;;;;2105250;28;19928;-49
2022/03/08 06:44:21;;;;;;;;;;;;;;;;;;2105493;28;20007;-48
2022/03/08 06:45:23;;;;;;;;;;;;;;;;;;2105855;28;19999;-49
2022/03/08 06:46:24;;;;;;;;;;;;;;;;;;2104348;28;20220;-48
2022/03/08 06:47:25;;;;;;;;;;;;;;;;;;2106329;28;19931;-49
2022/03/08 06:48:26;;;;;;;;;;;;;;;;;;2105789;28;20415;-45
2022/03/08 06:49:28;;;;;;;;;;;;;;;;;;2104868;28;20662;-46
2022/03/08 06:50:29;;;;;;;;;;;;;;;;;;2107432;28;19952;-47
2022/03/08 06:51:30;;;;;;;;;;;;;;;;;;2106869;28;19961;-47
2022/03/08 06:52:31;;;;;;;;;;;;;;;;;;2106116;28;19928;-46
2022/03/08 06:53:32;;;;;;;;;;;;;;;;;;2107696;28;19924;-48
2022/03/08 06:54:34;;;;;;;;;;;;;;;;;;2099681;28;19928;-50
2022/03/08 06:55:36;;;;;;;;;;;;;;;;;;2107327;28;19924;-49
2022/03/08 06:56:37;;;;;;;;;;;;;;;;;;2107528;28;20425;-46
2022/03/08 06:57:38;;;;;;;;;;;;;;;;;;2108530;28;19971;-52
2022/03/08 06:58:40;;;;;;;;;;;;;;;;;;2107628;28;20376;-46
2022/03/08 06:59:41;;;;;;;;;;;;;;;;;;2107270;28;19967;-48
2022/03/08 07:00:43;;;;;;;;;;;;;;;;;;2107410;28;19924;-48